Time;durP1;ratioP1;P1;durP2;ratioP2;P2;SDS_P1;SDS_P2;PMS_P1;PMS_P2;Temp;Humidity;BMP_temperature;BMP_pressure;BME280_temperature;BME280_humidity;BME280_pressure;Samples;Min_cycle;Max_cycle;Signal;HPM_P1;HPM_P2
2022/08/14 03:43:49;;;;;;;20.25;19.05;;;;;;;-141.02;100.00;86610.88;5130854;27;20550;-76
2022/08/14 03:46:17;;;;;;;19.98;18.88;;;;;;;-141.02;100.00;86612.81;5130219;28;20188;-76
2022/08/14 03:48:45;;;;;;;19.02;17.92;;;;;;;-141.02;100.00;86581.72;5130168;28;20204;-76
2022/08/14 03:51:13;;;;;;;17.50;16.60;;;;;;;-141.02;100.00;86513.66;5129986;28;20197;-76
2022/08/14 03:53:43;;;;;;;17.02;16.23;;;;;;;-141.02;100.00;86542.81;5130029;28;20197;-75
2022/08/14 03:56:13;;;;;;;16.15;15.35;;;;;;;-141.02;100.00;86540.88;5130294;28;20277;-76
2022/08/14 03:58:44;;;;;;;15.80;15.10;;;;;;;-141.02;100.00;86579.78;5130229;28;20196;-76
2022/08/14 04:01:13;;;;;;;15.10;14.40;;;;;;;-141.02;100.00;86607.00;5129971;28;20238;-76
2022/08/14 04:03:40;;;;;;;14.48;13.88;;;;;;;-141.02;100.00;86649.78;5130201;28;20196;-77
2022/08/14 04:06:10;;;;;;;13.38;12.88;;;;;;;-141.02;100.00;86719.78;5129835;28;20586;-76
2022/08/14 04:08:38;;;;;;;13.35;12.85;;;;;;;-141.02;100.00;86680.88;5129761;28;20196;-76
2022/08/14 04:11:06;;;;;;;12.85;12.35;;;;;;;-141.02;100.00;86696.44;5129891;28;20280;-76
2022/08/14 04:13:36;;;;;;;12.57;12.18;;;;;;;-141.02;100.00;86659.50;5129736;28;20218;-76
2022/08/14 04:16:04;;;;;;;12.40;12.00;;;;;;;-141.02;100.00;86603.09;5129984;28;20253;-76
2022/08/14 04:18:34;;;;;;;12.10;11.70;;;;;;;-141.02;100.00;86583.66;5130013;28;20253;-76
2022/08/14 04:21:01;;;;;;;12.27;11.88;;;;;;;-141.02;100.00;86517.53;5129842;28;20192;-76
2022/08/14 04:23:29;;;;;;;12.40;12.00;;;;;;;-141.02;100.00;86451.44;5129520;28;20574;-77
2022/08/14 04:25:57;;;;;;;12.30;11.90;;;;;;;-141.02;100.00;86408.66;5129526;28;20677;-77
2022/08/14 04:28:25;;;;;;;11.73;11.32;;;;;;;-141.02;100.00;86404.75;5129383;28;20238;-76
2022/08/14 04:30:53;;;;;;;11.60;11.20;;;;;;;-141.02;100.00;86358.09;5129376;28;20219;-77
2022/08/14 04:33:23;;;;;;;11.20;10.80;;;;;;;-141.02;100.00;86315.31;5129238;28;20653;-77
2022/08/14 04:35:52;;;;;;;10.48;10.18;;;;;;;-141.02;100.00;86272.53;5129204;28;20189;-78
2022/08/14 04:43:51;;;;;;;10.23;9.93;;;;;;;-141.02;100.00;86253.09;5080220;28;20286;-76
2022/08/14 04:46:20;;;;;;;10.38;10.07;;;;;;;-141.02;100.00;86257.00;5074719;28;20194;-76
2022/08/14 04:48:47;;;;;;;10.20;9.90;;;;;;;-141.02;100.00;86268.66;5074896;28;20277;-77
2022/08/14 04:51:21;;;;;;;9.95;9.65;;;;;;;-141.02;100.00;86270.59;5074617;28;20561;-78
2022/08/14 04:53:49;;;;;;;9.73;9.43;;;;;;;-141.02;100.00;86122.84;5074869;28;20554;-76
2022/08/14 04:56:20;;;;;;;9.82;9.52;;;;;;;-141.02;100.00;86276.44;5074589;28;20206;-76
2022/08/14 04:58:49;;;;;;;9.73;9.43;;;;;;;-141.02;100.00;86229.78;5074507;28;20187;-76
2022/08/14 05:01:16;;;;;;;9.80;9.50;;;;;;;-141.02;100.00;86237.53;5074453;28;20198;-75
2022/08/14 05:03:44;;;;;;;10.23;9.93;;;;;;;-141.02;100.00;85852.59;5074405;28;20197;-76
2022/08/14 05:06:12;;;;;;;10.32;10.02;;;;;;;-141.02;100.00;86187.00;5074419;28;20197;-76
2022/08/14 05:08:42;;;;;;;10.60;10.30;;;;;;;-141.02;100.00;86155.88;5074568;28;20202;-76
2022/08/14 05:11:10;;;;;;;10.63;10.32;;;;;;;-141.02;100.00;86093.66;5074281;28;20204;-76
2022/08/14 05:13:38;;;;;;;11.20;10.80;;;;;;;-141.02;100.00;86101.44;5074164;28;20244;-76
2022/08/14 05:16:07;;;;;;;11.10;10.70;;;;;;;-141.02;100.00;86027.56;5074462;28;20249;-77
2022/08/14 05:18:36;;;;;;;11.15;10.75;;;;;;;-141.02;100.00;86012.00;5074421;28;20630;-76
2022/08/14 05:21:07;;;;;;;11.30;10.90;;;;;;;-141.02;100.00;85992.56;5074364;28;20252;-76
2022/08/14 05:23:36;;;;;;;11.30;10.90;;;;;;;-141.02;100.00;85963.41;5074054;28;20191;-78
2022/08/14 05:26:11;;;;;;;11.07;10.68;;;;;;;-141.02;100.00;85943.97;5073971;28;20198;-76
2022/08/14 05:28:43;;;;;;;11.27;10.88;;;;;;;-141.02;100.00;85930.34;5074001;28;20182;-77
2022/08/14 05:31:13;;;;;;;12.88;12.38;;;;;;;-141.02;100.00;85949.78;5074215;28;20187;-77
2022/08/14 05:33:41;;;;;;;11.43;11.02;;;;;;;-141.02;100.00;85934.25;5073760;28;20237;-78
2022/08/14 05:36:11;;;;;;;11.27;10.88;;;;;;;-141.02;100.00;85868.13;5074088;28;20195;-77
2022/08/14 05:38:41;;;;;;;11.32;10.93;;;;;;;-141.02;100.00;85891.47;5074019;28;20203;-77
2022/08/14 05:41:11;;;;;;;11.40;11.00;;;;;;;-141.02;100.00;85901.19;5075057;28;20194;-77
2022/08/14 05:43:39;;;;;;;11.27;10.88;;;;;;;-141.02;100.00;85879.81;5112621;28;20286;-77
2022/08/14 05:46:08;;;;;;;11.50;11.10;;;;;;;-141.02;100.00;85860.38;5114455;28;20284;-77
2022/08/14 05:48:35;;;;;;;11.15;10.75;;;;;;;-141.02;100.00;85905.06;5114088;28;20190;-76
2022/08/14 05:51:02;;;;;;;11.20;10.80;;;;;;;-141.02;100.00;85881.75;5114334;28;20193;-77
2022/08/14 05:53:30;;;;;;;11.38;10.98;;;;;;;-141.02;100.00;85895.34;5114220;28;20297;-78
2022/08/14 05:55:58;;;;;;;11.10;10.70;;;;;;;-141.02;100.00;85852.59;5113247;28;20225;-79
2022/08/14 05:58:27;;;;;;;11.55;11.15;;;;;;;-141.02;100.00;85868.13;5113929;28;20706;-79
2022/08/14 06:00:56;;;;;;;11.40;11.00;;;;;;;-141.02;100.00;85833.16;5113808;28;20671;-77
2022/08/14 06:03:24;;;;;;;11.60;11.20;;;;;;;-141.02;100.00;85829.25;5113888;28;20572;-79
2022/08/14 06:05:54;;;;;;;11.98;11.57;;;;;;;-141.02;100.00;86957.03;5113692;28;20196;-79
2022/08/14 06:08:24;;;;;;;12.48;12.07;;;;;;;-141.02;100.00;85788.44;5113979;28;20197;-79
2022/08/14 06:10:52;;;;;;;12.73;12.32;;;;;;;-141.02;100.00;85767.03;5113606;28;20193;-79
2022/08/14 06:13:20;;;;;;;13.77;13.27;;;;;;;-141.02;100.00;85477.38;5113864;28;20350;-79
2022/08/14 06:15:50;;;;;;;14.15;13.65;;;;;;;-141.02;100.00;85743.72;5113553;28;20283;-78
2022/08/14 06:18:18;;;;;;;13.38;12.88;;;;;;;-141.02;100.00;85658.19;5113877;28;20627;-79
2022/08/14 06:20:46;;;;;;;13.10;12.60;;;;;;;-141.02;100.00;85646.50;5113588;28;20196;-79
2022/08/14 06:23:13;;;;;;;13.45;12.95;;;;;;;-141.02;100.00;85615.41;5113693;28;20193;-79
2022/08/14 06:25:41;;;;;;;13.82;13.32;;;;;;;-141.02;100.00;85580.41;5113382;28;20222;-79
2022/08/14 06:28:08;;;;;;;15.00;14.40;;;;;;;-141.02;100.00;85389.91;5113289;28;20192;-80
2022/08/14 06:30:36;;;;;;;15.30;14.70;;;;;;;-141.02;100.00;85448.22;5113325;28;20207;-79
2022/08/14 06:33:05;;;;;;;16.60;15.82;;;;;;;-141.02;100.00;85407.41;5113182;28;20285;-79
2022/08/14 06:35:32;;;;;;;17.15;16.35;;;;;;;-141.02;100.00;85413.25;5113187;28;20677;-79
2022/08/14 06:38:01;;;;;;;16.40;15.70;;;;;;;-141.02;100.00;85389.91;5113526;28;20197;-79
2022/08/14 06:40:30;;;;;;;15.70;15.10;;;;;;;-141.02;100.00;85448.22;5113028;28;20193;-79
2022/08/14 06:42:58;;;;;;;15.25;14.65;;;;;;;-141.02;100.00;85446.28;5112905;28;20228;-79
2022/08/14 06:45:26;;;;;;;15.10;14.50;;;;;;;-141.02;100.00;85479.34;5113810;28;20236;-79
2022/08/14 06:47:54;;;;;;;13.90;13.40;;;;;;;-141.02;100.00;85685.41;5112996;28;20651;-78
2022/08/14 06:50:25;;;;;;;14.00;13.50;;;;;;;-141.02;100.00;85491.00;5112998;28;20663;-81
2022/08/14 06:52:53;;;;;;;13.60;13.10;;;;;;;-141.02;100.00;85471.56;5113218;28;20213;-81
2022/08/14 06:55:20;;;;;;;14.00;13.50;;;;;;;-141.02;100.00;85457.94;5113736;28;20196;-79
2022/08/14 06:57:50;;;;;;;14.50;14.00;;;;;;;-141.02;100.00;85452.13;5112805;28;20188;-78
2022/08/14 07:00:20;;;;;;;14.90;14.30;;;;;;;-141.02;100.00;85465.72;5112731;28;20254;-79
2022/08/14 07:05:47;;;;;;;14.30;13.80;;;;;;;-141.02;100.00;85456.00;5113533;28;20230;-78
2022/08/14 07:08:17;;;;;;;14.38;13.88;;;;;;;-141.02;100.00;85477.38;5112791;28;20193;-79
2022/08/14 07:10:45;;;;;;;13.85;13.35;;;;;;;-141.02;100.00;85457.94;5112566;28;20233;-80
2022/08/14 07:13:14;;;;;;;14.45;13.95;;;;;;;-141.02;100.00;85479.34;5112577;28;20255;-78
2022/08/14 07:15:44;;;;;;;13.52;13.02;;;;;;;-141.02;100.00;85487.09;5112517;28;20566;-78
2022/08/14 07:18:12;;;;;;;13.00;12.60;;;;;;;-141.02;100.00;85502.66;5112604;28;20181;-78
2022/08/14 07:20:43;;;;;;;12.60;12.20;;;;;;;-141.02;100.00;85459.91;5112488;28;20196;-78
2022/08/14 07:23:10;;;;;;;12.38;11.98;;;;;;;-141.02;100.00;85432.69;5112760;28;20191;-78
2022/08/14 07:25:39;;;;;;;12.32;11.93;;;;;;;-141.02;100.00;85452.13;5112741;28;20197;-78
2022/08/14 07:28:11;;;;;;;12.85;12.45;;;;;;;-141.02;100.00;86492.28;5112402;28;20197;-78
2022/08/14 07:30:38;;;;;;;12.60;12.20;;;;;;;-141.02;100.00;85440.44;5112438;28;20623;-78
2022/08/14 07:33:06;;;;;;;12.93;12.52;;;;;;;-141.02;100.00;85421.00;5112417;28;20315;-78
2022/08/14 07:35:34;;;;;;;13.20;12.80;;;;;;;-141.02;100.00;85436.56;5112654;28;20205;-77
2022/08/14 07:38:04;;;;;;;13.25;12.85;;;;;;;-141.02;100.00;85382.13;5112374;28;20325;-78
2022/08/14 07:40:31;;;;;;;13.50;13.00;;;;;;;-141.02;100.00;85372.41;5112274;28;20197;-77
2022/08/14 07:42:59;;;;;;;13.63;13.13;;;;;;;-141.02;100.00;85389.91;5112193;28;20220;-78
2022/08/14 07:45:27;;;;;;;13.82;13.32;;;;;;;-141.02;100.00;85316.03;5112522;28;20555;-77
2022/08/14 07:47:56;;;;;;;14.27;13.77;;;;;;;-141.02;100.00;85356.88;5112249;28;20204;-79
2022/08/14 07:50:24;;;;;;;14.25;13.75;;;;;;;-141.02;100.00;85304.38;5112197;28;20666;-78
2022/08/14 07:52:52;;;;;;;15.85;15.25;;;;;;;-141.02;100.00;85277.16;5112122;28;20232;-78
2022/08/14 07:55:21;;;;;;;16.25;15.55;;;;;;;-141.02;100.00;85234.41;5112213;28;20197;-78
2022/08/14 07:57:49;;;;;;;16.42;15.73;;;;;;;-141.02;100.00;85179.97;5112446;28;20220;-78
2022/08/14 08:00:19;;;;;;;16.50;15.80;;;;;;;-141.02;100.00;85211.09;5112420;28;20220;-80
2022/08/14 08:02:48;;;;;;;15.25;14.65;;;;;;;-141.02;100.00;85160.53;5112034;28;20253;-78
2022/08/14 08:05:17;;;;;;;16.00;15.40;;;;;;;-141.02;100.00;85187.75;5112971;28;20189;-79
2022/08/14 08:07:45;;;;;;;15.32;14.80;;;;;;;-141.02;100.00;85156.66;5111982;28;20196;-78
2022/08/14 08:10:33;;;;;;;14.20;13.70;;;;;;;-141.02;100.00;85168.31;5112392;28;20200;-79
2022/08/14 08:13:04;;;;;;;13.40;13.00;;;;;;;-141.02;100.00;85154.72;5112735;28;20296;-78
2022/08/14 08:15:35;;;;;;;12.80;12.40;;;;;;;-141.02;100.00;85152.78;5112064;28;20185;-78
2022/08/14 08:18:04;;;;;;;12.60;12.20;;;;;;;-141.02;100.00;85133.31;5112270;28;20223;-78
2022/08/14 08:20:33;;;;;;;12.93;12.52;;;;;;;-141.02;100.00;85145.00;5115867;28;20193;-77
2022/08/14 08:23:01;;;;;;;13.77;13.38;;;;;;;-141.02;100.00;85110.00;5115730;28;20278;-78
2022/08/14 08:25:31;;;;;;;15.75;15.15;;;;;;;-141.02;100.00;85047.81;5115697;28;20262;-76
2022/08/14 08:28:01;;;;;;;16.90;16.20;;;;;;;-141.02;100.00;85043.91;5115657;28;20678;-78
2022/08/14 08:30:32;;;;;;;15.85;15.25;;;;;;;-141.02;100.00;84997.28;5115654;28;20201;-78
2022/08/14 08:33:01;;;;;;;14.60;14.10;;;;;;;-141.02;100.00;85012.81;5115535;28;20209;-78
2022/08/14 08:35:32;;;;;;;15.13;14.63;;;;;;;-141.02;100.00;84989.50;5115499;28;20193;-78
2022/08/14 08:38:03;;;;;;;14.27;13.77;;;;;;;-141.02;100.00;84771.81;5115857;28;20181;-78
2022/08/14 08:40:34;;;;;;;15.63;15.02;;;;;;;-141.02;100.00;84876.78;5115452;28;20275;-78
2022/08/14 08:43:02;;;;;;;17.42;16.73;;;;;;;-141.02;100.00;84762.09;5115388;28;20718;-79
2022/08/14 08:45:31;;;;;;;16.80;16.10;;;;;;;-141.02;100.00;84732.94;5115239;28;20193;-78
2022/08/14 08:47:58;;;;;;;16.20;15.60;;;;;;;-141.02;100.00;84719.34;5115324;28;20280;-78
2022/08/14 08:50:29;;;;;;;16.30;15.70;;;;;;;-141.02;100.00;84894.25;5115509;28;20197;-79
2022/08/14 08:52:59;;;;;;;17.20;16.50;;;;;;;-141.02;100.00;84694.06;5115228;28;20248;-78
2022/08/14 08:55:28;;;;;;;16.50;15.90;;;;;;;-141.02;100.00;84686.31;5115182;28;20685;-77
2022/08/14 08:57:57;;;;;;;16.40;15.80;;;;;;;-141.02;100.00;84651.31;5115116;28;20246;-77
2022/08/14 09:00:26;;;;;;;16.08;15.48;;;;;;;-141.02;100.00;84589.13;5115366;28;20222;-78
2022/08/14 09:03:04;;;;;;;15.73;15.13;;;;;;;-141.02;100.00;84624.09;5115115;28;20199;-78
2022/08/14 09:05:34;;;;;;;15.50;14.90;;;;;;;-141.02;100.00;84577.47;5114964;28;20599;-77
2022/08/14 09:08:13;;;;;;;15.40;14.80;;;;;;;-141.02;100.00;84612.44;5114917;28;20197;-78
2022/08/14 09:10:41;;;;;;;15.70;15.10;;;;;;;-141.02;100.00;84651.31;5115322;28;20204;-77
2022/08/14 09:13:10;;;;;;;15.95;15.35;;;;;;;-141.02;100.00;84604.69;5114757;28;20232;-76
2022/08/14 09:15:39;;;;;;;15.40;14.80;;;;;;;-141.02;100.00;84589.13;5114796;28;20296;-77
2022/08/14 09:18:09;;;;;;;14.90;14.30;;;;;;;-141.02;100.00;84556.09;5114940;28;20223;-77
2022/08/14 09:20:39;;;;;;;15.75;15.05;;;;;;;-141.02;100.00;84523.06;5115006;28;20193;-77
2022/08/14 09:23:07;;;;;;;16.73;15.93;;;;;;;-141.02;100.00;84402.56;5114763;28;20280;-77
2022/08/14 09:25:36;;;;;;;17.00;16.20;;;;;;;-141.02;100.00;84332.59;5114569;28;20196;-77
2022/08/14 09:28:05;;;;;;;17.45;16.55;;;;;;;-141.02;100.00;84212.13;5114497;28;20224;-77
2022/08/14 09:30:34;;;;;;;17.60;16.70;;;;;;;-141.02;100.00;83864.31;5114383;28;20197;-77
2022/08/14 09:33:32;;;;;;;17.83;16.92;;;;;;;-141.02;100.00;84064.44;5114764;28;20274;-77
2022/08/14 09:36:35;;;;;;;18.17;17.17;;;;;;;-141.02;100.00;83928.44;5115309;28;20185;-78
2022/08/14 09:39:13;;;;;;;18.27;17.27;;;;;;;-141.02;100.00;83815.72;5111166;28;20193;-77
2022/08/14 09:41:53;;;;;;;17.55;16.55;;;;;;;-141.02;100.00;83796.31;5114151;28;20236;-77
2022/08/14 09:44:44;;;;;;;18.80;17.70;;;;;;;-141.02;99.92;83695.28;5114302;28;20189;-79
2022/08/14 09:47:13;;;;;;;17.90;16.80;;;;;;;-141.02;97.26;83349.44;5114233;28;20659;-77
2022/08/14 09:49:42;;;;;;;17.52;16.52;;;;;;;-141.02;95.52;83594.25;5114110;28;20193;-77
2022/08/14 09:52:11;;;;;;;18.40;17.40;;;;;;;-141.02;96.63;83559.25;5114035;28;20197;-77
2022/08/14 09:54:41;;;;;;;17.40;16.40;;;;;;;-141.02;96.32;83520.41;5113885;28;20231;-76
2022/08/14 09:57:12;;;;;;;17.88;16.88;;;;;;;-141.02;88.32;83396.06;5114063;28;20243;-76
2022/08/14 09:59:46;;;;;;;17.65;16.73;;;;;;;-141.02;92.86;83473.78;5114227;28;20185;-76
2022/08/14 10:02:22;;;;;;;17.40;16.50;;;;;;;-141.02;90.46;83415.50;5113954;28;20667;-77
2022/08/14 10:05:06;;;;;;;17.55;16.55;;;;;;;-141.02;91.97;83423.28;5113839;28;20187;-76
2022/08/14 10:07:36;;;;;;;18.23;17.23;;;;;;;-141.02;86.21;83279.50;5114191;28;20185;-76
2022/08/14 10:10:04;;;;;;;17.90;16.90;;;;;;;-141.02;83.70;83281.44;5113755;28;20250;-80
2022/08/14 10:12:47;;;;;;;17.75;16.75;;;;;;;-141.02;80.89;83215.41;5113955;28;20221;-76
2022/08/14 10:15:19;;;;;;;17.63;16.73;;;;;;;-141.02;80.11;83164.91;5113638;28;20682;-76
2022/08/14 10:17:48;;;;;;;18.23;17.23;;;;;;;-141.02;72.35;83089.13;5113574;28;20181;-75
2022/08/14 10:20:21;;;;;;;18.35;17.35;;;;;;;-141.02;72.61;83011.44;5113798;28;20194;-77
2022/08/14 10:22:49;;;;;;;18.65;17.60;;;;;;;-141.02;70.45;82910.41;5113507;28;20195;-77
2022/08/14 10:25:18;;;;;;;18.52;17.52;;;;;;;-141.02;69.68;82828.84;5113387;28;20189;-77
2022/08/14 10:27:57;;;;;;;19.92;18.83;;;;;;;-141.02;66.25;82723.94;5113435;28;20197;-77
2022/08/14 10:30:33;;;;;;;20.33;19.23;;;;;;;-141.02;66.15;82714.22;5113320;28;20276;-76
2022/08/14 10:33:01;;;;;;;20.65;19.55;;;;;;;-141.02;66.83;82671.50;5113208;28;20181;-80
2022/08/14 10:35:40;;;;;;;20.73;19.63;;;;;;;-141.02;69.89;82706.47;5113231;28;20189;-76
2022/08/14 10:38:09;;;;;;;21.55;20.35;;;;;;;-141.02;64.10;82562.72;5113226;28;20185;-76
2022/08/14 10:40:37;;;;;;;21.52;20.23;;;;;;;-141.02;63.69;82488.94;5112919;28;20654;-76
2022/08/14 10:43:18;;;;;;;20.67;19.45;;;;;;;-141.02;63.14;82417.06;5112950;28;20229;-76
2022/08/14 10:46:00;;;;;;;21.15;19.85;;;;;;;-141.02;60.56;82370.44;5113105;28;20246;-76
2022/08/14 10:48:28;;;;;;;21.23;19.83;;;;;;;-141.02;59.80;82304.41;5113303;28;20246;-75
2022/08/14 10:50:58;;;;;;;21.30;19.90;;;;;;;-141.02;60.50;82300.53;5112967;28;20232;-75
2022/08/14 10:53:31;;;;;;;20.88;19.48;;;;;;;-141.02;60.24;82215.06;5113149;28;20263;-75
2022/08/14 10:56:02;;;;;;;20.88;19.48;;;;;;;-141.02;60.75;82312.19;5113034;28;20189;-75
2022/08/14 10:58:32;;;;;;;20.05;18.75;;;;;;;-141.02;63.58;82316.06;5113146;28;20661;-75
2022/08/14 11:01:00;;;;;;;19.25;18.05;;;;;;;-141.02;66.70;82516.13;5112873;28;20288;-76
2022/08/14 11:03:38;;;;;;;20.02;18.73;;;;;;;-141.02;65.27;82434.53;5112797;28;20658;-76
2022/08/14 11:06:19;;;;;;;19.10;17.90;;;;;;;-141.02;66.04;82395.69;5112777;28;20225;-75
2022/08/14 11:08:50;;;;;;;19.40;18.20;;;;;;;-141.02;62.22;82358.78;5112715;28;20185;-76
2022/08/14 11:11:19;;;;;;;19.77;18.48;;;;;;;-141.02;62.87;82426.78;5112997;28;20192;-75
2022/08/14 11:13:49;;;;;;;19.20;18.00;;;;;;;-141.02;64.13;83532.06;5112544;28;20225;-77
2022/08/14 11:16:17;;;;;;;19.90;18.60;;;;;;;-141.02;65.16;82397.63;5112943;28;20220;-76
2022/08/14 11:18:47;;;;;;;19.85;18.65;;;;;;;-141.02;61.92;82164.59;5112586;28;20220;-75
2022/08/14 11:21:19;;;;;;;20.08;18.77;;;;;;;-141.02;61.84;82292.75;5113539;28;20203;-77
2022/08/14 11:23:48;;;;;;;19.83;18.63;;;;;;;-141.02;63.72;82199.53;5112576;28;20189;-76
2022/08/14 11:26:18;;;;;;;19.80;18.60;;;;;;;-141.02;62.09;82281.13;5112502;28;20189;-75
2022/08/14 11:28:49;;;;;;;19.60;18.40;;;;;;;-141.02;59.88;82024.75;5112499;28;20199;-75
2022/08/14 11:31:19;;;;;;;19.88;18.58;;;;;;;-141.02;58.32;82178.19;5112802;28;20232;-76
2022/08/14 11:33:56;;;;;;;19.83;18.52;;;;;;;-141.02;60.21;82222.84;5112802;28;20318;-75
2022/08/14 11:36:27;;;;;;;19.80;18.50;;;;;;;-141.02;60.42;82123.81;5112401;28;20189;-75
2022/08/14 11:38:55;;;;;;;19.17;17.98;;;;;;;-141.02;61.74;82232.56;5112960;28;20197;-76
2022/08/14 11:41:22;;;;;;;19.73;18.42;;;;;;;-141.02;60.96;82156.81;5112155;28;20189;-78
2022/08/14 11:43:50;;;;;;;19.83;18.55;;;;;;;-141.02;59.62;82172.34;5112463;28;20288;-77
2022/08/14 11:46:18;;;;;;;19.65;18.35;;;;;;;-141.02;59.31;82141.28;5112339;28;20678;-78
2022/08/14 11:48:47;;;;;;;19.92;18.65;;;;;;;-141.02;59.96;82176.25;5112372;28;20685;-75
2022/08/14 11:51:19;;;;;;;20.20;18.90;;;;;;;-141.02;56.79;82030.59;5112578;28;20235;-77
2022/08/14 11:53:56;;;;;;;20.45;19.15;;;;;;;-141.02;56.02;81939.31;5113914;28;20716;-75
2022/08/14 11:56:24;;;;;;;20.13;18.83;;;;;;;-141.02;55.12;81919.91;5117447;28;20589;-73
2022/08/14 11:58:53;;;;;;;20.80;19.50;;;;;;;-141.02;55.49;81974.28;5116485;28;20197;-76
2022/08/14 12:01:29;;;;;;;20.30;19.00;;;;;;;-141.02;55.10;81702.41;5116401;28;20196;-74
2022/08/14 12:04:09;;;;;;;20.27;18.98;;;;;;;-141.02;56.22;81970.38;5116667;28;20237;-76
2022/08/14 12:06:47;;;;;;;21.00;19.70;;;;;;;-141.02;56.33;82001.47;5116219;28;20643;-77
2022/08/14 12:09:28;;;;;;;20.70;19.40;;;;;;;-141.02;55.35;81927.66;5117078;28;20611;-76
2022/08/14 12:11:56;;;;;;;20.45;19.15;;;;;;;-141.02;54.47;81935.44;5116124;28;20543;-77
2022/08/14 12:14:24;;;;;;;20.48;19.17;;;;;;;-141.02;54.79;81927.66;5116043;28;20224;-76
2022/08/14 12:17:06;;;;;;;20.40;19.10;;;;;;;-141.02;55.54;81943.19;5116090;28;20189;-76
2022/08/14 12:19:53;;;;;;;20.30;19.00;;;;;;;-141.02;55.80;81888.81;5116121;28;20185;-75
2022/08/14 12:22:34;;;;;;;20.35;19.05;;;;;;;-141.02;56.15;81962.63;5116290;28;20569;-75
2022/08/14 12:25:04;;;;;;;20.75;19.45;;;;;;;-141.02;56.62;81935.44;5115803;28;20642;-75
2022/08/14 12:27:41;;;;;;;20.48;19.17;;;;;;;-141.02;57.74;82026.69;5115823;28;20580;-74
2022/08/14 12:30:09;;;;;;;20.40;19.15;;;;;;;-141.02;58.37;82024.75;5115721;28;20643;-74
2022/08/14 12:32:42;;;;;;;20.63;19.33;;;;;;;-141.02;58.47;82001.47;5115867;28;20193;-74
2022/08/14 12:35:10;;;;;;;20.23;18.95;;;;;;;-141.02;57.39;81972.31;5115510;28;20271;-74
2022/08/14 12:37:38;;;;;;;20.40;19.10;;;;;;;-141.02;56.08;81883.00;5115539;28;20255;-75
2022/08/14 12:40:12;;;;;;;20.92;19.63;;;;;;;-141.02;55.87;81826.69;5115492;28;20726;-75
2022/08/14 12:42:40;;;;;;;20.50;19.20;;;;;;;-141.02;54.53;81830.56;5115328;28;20227;-75
2022/08/14 12:45:11;;;;;;;20.35;19.05;;;;;;;-141.02;54.04;81811.16;5115414;28;20249;-76
2022/08/14 12:47:40;;;;;;;20.38;19.08;;;;;;;-141.02;56.03;81921.84;5115735;28;20185;-75
2022/08/14 12:50:09;;;;;;;20.08;18.77;;;;;;;-141.02;56.04;81904.34;5116173;28;20220;-74
2022/08/14 12:52:39;;;;;;;20.10;18.80;;;;;;;-141.02;55.12;81859.69;5115574;28;20739;-76
2022/08/14 12:55:11;;;;;;;20.45;19.15;;;;;;;-141.02;56.49;81949.03;5115330;28;20219;-75
2022/08/14 12:57:41;;;;;;;20.08;18.77;;;;;;;-141.02;56.32;81877.19;5115527;28;20254;-75
2022/08/14 13:00:14;;;;;;;20.40;19.10;;;;;;;-141.02;56.40;81902.41;5115459;28;20677;-76
2022/08/14 13:02:42;;;;;;;20.25;18.95;;;;;;;-141.02;56.73;81888.81;5115115;28;20228;-75
2022/08/14 13:05:11;;;;;;;20.13;18.80;;;;;;;-141.02;56.63;81916.00;5114557;28;20583;-75
2022/08/14 13:07:39;;;;;;;20.33;18.92;;;;;;;-141.02;58.36;81950.97;5114958;28;20309;-75
2022/08/14 13:10:13;;;;;;;20.13;18.83;;;;;;;-141.02;58.16;81764.53;5115030;28;20280;-75
2022/08/14 13:12:41;;;;;;;20.20;18.90;;;;;;;-141.02;58.37;81958.72;5114887;28;20570;-76
2022/08/14 13:15:11;;;;;;;19.67;18.38;;;;;;;-141.02;60.36;81987.88;5114859;28;20278;-76
2022/08/14 13:17:43;;;;;;;19.55;18.25;;;;;;;-141.02;60.02;81958.72;5114855;28;20197;-77
2022/08/14 13:20:12;;;;;;;19.90;18.60;;;;;;;-141.02;61.29;82044.19;5114736;28;20295;-75
2022/08/14 13:22:42;;;;;;;20.10;18.80;;;;;;;-141.02;61.66;82065.53;5114714;28;20196;-75
2022/08/14 13:25:13;;;;;;;20.27;18.98;;;;;;;-141.02;61.40;82051.94;5114626;28;20197;-77
2022/08/14 13:27:42;;;;;;;19.55;18.25;;;;;;;-141.02;61.97;81993.69;5114680;28;20190;-76
2022/08/14 13:30:11;;;;;;;19.67;18.38;;;;;;;-141.02;60.94;82005.34;5115347;28;20198;-76
2022/08/14 13:32:43;;;;;;;19.83;18.52;;;;;;;-141.02;60.04;81985.91;5114501;28;20716;-76
2022/08/14 13:35:11;;;;;;;19.58;18.27;;;;;;;-141.02;59.75;81570.38;5114577;28;20221;-75
2022/08/14 13:37:40;;;;;;;19.65;18.35;;;;;;;-141.02;59.41;81776.19;5114432;28;20254;-75
2022/08/14 13:40:09;;;;;;;19.85;18.48;;;;;;;-141.02;58.50;81923.78;5114685;28;20201;-77
2022/08/14 13:42:42;;;;;;;19.95;18.58;;;;;;;-141.02;57.92;81888.81;5114207;28;20281;-76
2022/08/14 13:45:12;;;;;;;20.60;19.20;;;;;;;-141.02;57.52;81836.41;5114313;28;20574;-76
2022/08/14 13:47:40;;;;;;;20.15;18.75;;;;;;;-141.02;57.14;81834.44;5114532;28;20201;-75
2022/08/14 13:50:10;;;;;;;19.98;18.67;;;;;;;-141.02;56.28;81776.19;5114197;28;20196;-75
2022/08/14 13:52:44;;;;;;;20.35;18.95;;;;;;;-141.02;56.62;81791.72;5114395;28;20193;-75
2022/08/14 13:55:12;;;;;;;20.23;18.83;;;;;;;-141.02;56.00;81776.19;5114349;28;20278;-76
2022/08/14 13:57:43;;;;;;;20.25;18.85;;;;;;;-141.02;56.09;81733.47;5114332;28;20201;-75
2022/08/14 14:00:12;;;;;;;20.80;19.40;;;;;;;-141.02;56.15;81815.03;5113999;28;20199;-75
2022/08/14 14:02:42;;;;;;;20.58;19.17;;;;;;;-141.02;57.25;81873.28;5113885;28;20624;-76
2022/08/14 14:05:12;;;;;;;20.45;19.05;;;;;;;-141.02;57.01;81811.16;5113902;28;20229;-76
2022/08/14 14:07:41;;;;;;;20.52;19.13;;;;;;;-141.02;57.25;81859.69;5114015;28;20643;-76
2022/08/14 14:10:10;;;;;;;20.38;18.98;;;;;;;-141.02;57.12;81890.75;5113808;28;20195;-74
2022/08/14 14:12:38;;;;;;;20.27;18.88;;;;;;;-141.02;57.54;81764.53;5113724;28;20196;-75
2022/08/14 14:15:12;;;;;;;20.30;18.90;;;;;;;-141.02;56.96;81850.00;5113855;28;20235;-75
2022/08/14 14:17:40;;;;;;;21.75;20.20;;;;;;;-141.02;56.91;81811.16;5113041;28;20276;-75
2022/08/14 14:20:11;;;;;;;19.60;18.27;;;;;;;-141.02;56.62;81811.16;5113814;28;20193;-75
2022/08/14 14:22:42;;;;;;;20.02;18.63;;;;;;;-141.02;55.78;81616.97;5113553;28;20192;-76
2022/08/14 14:25:13;;;;;;;20.08;18.67;;;;;;;-141.02;55.69;81714.06;5114290;28;20276;-76
2022/08/14 14:27:42;;;;;;;20.13;18.73;;;;;;;-141.02;54.85;81694.63;5113512;28;20193;-75
2022/08/14 14:30:13;;;;;;;20.48;19.08;;;;;;;-141.02;54.47;81679.09;5113629;28;20639;-76
2022/08/14 14:32:43;;;;;;;20.08;18.67;;;;;;;-141.02;55.34;81716.00;5113364;28;20192;-76
2022/08/14 14:35:13;;;;;;;20.30;18.90;;;;;;;-141.02;100.00;55844.97;5113476;28;20264;-76
2022/08/14 14:37:42;;;;;;;20.50;19.10;;;;;;;-141.02;100.00;55844.97;5113540;28;20270;-75
2022/08/14 14:40:12;;;;;;;20.90;19.50;;;;;;;-141.02;54.67;81665.50;5113094;28;20197;-75
2022/08/14 14:42:47;;;;;;;20.88;19.48;;;;;;;-141.02;53.34;81585.91;5112934;28;20225;-75
2022/08/14 14:45:18;;;;;;;20.58;19.17;;;;;;;-141.02;54.07;81605.31;5113364;28;20189;-76
2022/08/14 14:47:48;;;;;;;21.17;19.67;;;;;;;-141.02;53.09;81568.44;5113143;28;20188;-75
2022/08/14 14:50:15;;;;;;;21.13;19.73;;;;;;;-141.02;52.35;81453.88;5113295;28;20193;-76
2022/08/14 14:52:43;;;;;;;21.20;19.80;;;;;;;-141.02;51.19;81457.75;5113511;28;20296;-77
2022/08/14 14:55:14;;;;;;;21.67;20.17;;;;;;;-141.02;51.28;81407.25;5112856;28;20224;-75
2022/08/14 14:57:42;;;;;;;21.38;19.98;;;;;;;-141.02;51.90;81236.41;5112854;28;20642;-77
2022/08/14 15:00:12;;;;;;;20.92;19.52;;;;;;;-141.02;51.98;81469.41;5112854;28;20208;-76
2022/08/14 15:02:44;;;;;;;22.00;20.50;;;;;;;-141.02;50.92;81403.38;5112707;28;20197;-74